ADDS METAR Data INFO
IDs: Format: Raw Decoded Include TAF

Data at: 0300 UTC 21 Jan 2018

KMDH 210252Z 18010KT 10SM SCT019 BKN036 08/07 A3004 RMK AO2 SLP173 T00830067 58001
KMDH 210245Z 19010KT 10SM FEW019 BKN030 BKN038 09/07 A3004 RMK AO2 T00890067
KMDH 210152Z 19013G22KT 10SM FEW016 OVC025 09/07 A3005 RMK AO2 SLP176 T00890067
KMDH 210052Z 18009KT 10SM BKN015 07/04 A3005 RMK AO2 SLP177 T00670044
KMDH 202352Z 19009KT 10SM OVC015 07/05 A3004 RMK AO2 SLP176 T00720050 10089 20067 53003
KMDH 202344Z 19010KT 10SM OVC015 07/05 A3004 RMK AO2 T00720050
KMDH 202252Z 18012KT 10SM OVC012 07/04 A3003 RMK AO2 SLP171 T00670044
KMDH 202228Z 17010KT 10SM BKN013 07/05 A3003 RMK AO2 T00720050
KMDH 202205Z 18011KT 10SM SCT027 08/05 A3004 RMK AO2 T00780050
KMDH 202152Z 18013KT 10SM BKN027 08/04 A3004 RMK AO2 SLP174 T00830044
KMDH 202052Z 19015G20KT 10SM BKN017 09/04 A3003 RMK AO2 SLP172 T00890039 55015
KMDH 201952Z 20014KT 10SM OVC015 08/03 A3003 RMK AO2 SLP171 T00830033
KMDH 201852Z 20017G26KT 10SM OVC015 08/03 A3005 RMK AO2 PK WND 19026/1851 SLP178 T00830028
KMDH 201752Z 21017KT 10SM OVC015 08/03 A3008 RMK AO2 SLP187 T00780033 10083 20011 58007
KMDH 201742Z 20018KT 10SM OVC015 08/04 A3008 RMK AO2 T00830039
KMDH 201727Z 20016G24KT 10SM BKN014 08/04 A3009 RMK AO2 T00780039
KMDH 201652Z 20017KT 10SM CLR 08/03 A3010 RMK AO2 SLP195 T00830033
KMDH 201552Z 20017KT 10SM CLR 07/00 A3010 RMK AO2 SLP196 T00670000
KMDH 201452Z 21016KT 10SM CLR 05/M03 A3010 RMK AO2 SLP195 T00501033 53010
KMDH 201352Z 21014G21KT 10SM CLR 03/M04 A3009 RMK AO2 SLP191 T00281039
KMDH 201252Z AUTO 21011KT 10SM CLR 02/M04 A3007 RMK AO2 SLP187 T00221039
KMDH 201152Z AUTO 20010KT 10SM CLR 01/M04 A3007 RMK AO2 SLP185 T00111039 10022 20000 50004
KMDH 201052Z AUTO 20010KT 10SM CLR 01/M04 A3007 RMK AO2 SLP186 T00111039
KMDH 200952Z AUTO 20007KT 10SM CLR 01/M04 A3006 RMK AO2 SLP184 T00061039
KMDH 200852Z AUTO 20011KT 10SM CLR 02/M04 A3006 RMK AO2 SLP181 T00171039 53006
KMDH 200752Z AUTO 21011KT 10SM CLR 02/M04 A3004 RMK AO2 SLP175 T00221044
KMDH 200652Z AUTO 21008G17KT 10SM CLR 02/M04 A3004 RMK AO2 SLP174 T00171044
KMDH 200552Z AUTO 22014KT 10SM CLR 02/M04 A3004 RMK AO2 SLP175 T00171044 10022 20017 400561056 53002
KMDH 200452Z AUTO 21018G26KT 10SM CLR 02/M04 A3003 RMK AO2 PK WND 20026/0437 SLP171 T00221044
KMDH 200352Z AUTO 20015G21KT 10SM CLR 02/M04 A3003 RMK AO2 SLP170 T00171044
KMDH 200252Z 21012KT 10SM CLR 02/M05 A3003 RMK AO2 SLP174 T00171050 50002
KMDH 200152Z 20016G23KT 10SM CLR 02/M05 A3004 RMK AO2 SLP175 T00171050
KMDH 200052Z 20013KT 10SM CLR 02/M04 A3004 RMK AO2 SLP176 T00221044
KMDH 192352Z 19014G26KT 10SM CLR 02/M04 A3003 RMK AO2 PK WND 20026/2344 SLP172 T00221039 10056 20022 56008
KMDH 192252Z 19015G24KT 10SM CLR 03/M04 A3003 RMK AO2 SLP174 T00331039
KMDH 192152Z 19019G25KT 10SM CLR 04/M04 A3004 RMK AO2 SLP177 T00441044
KMDH 192052Z 19016G22KT 10SM CLR 05/M04 A3005 RMK AO2 SLP180 T00501044 56027
KMDH 191952Z 20013KT 10SM CLR 06/M04 A3006 RMK AO2 SLP182 T00561039
KMDH 191852Z 20013KT 10SM CLR 04/M05 A3010 RMK AO2 SLP196 T00441050
KMDH 191752Z 20012KT 10SM CLR 04/M06 A3013 RMK AO2 SLP208 T00391056 10039 21056 58017
KMDH 191652Z 20014KT 10SM CLR 02/M06 A3017 RMK AO2 SLP222 T00171061
KMDH 191552Z 20010KT 10SM CLR 00/M07 A3019 RMK AO2 SLP226 T00001067